createdAt,value
2018-12-06T00:01:38.398Z,21.60
2018-12-06T00:04:42.134Z,21.60
2018-12-06T00:07:57.074Z,21.60
2018-12-06T00:11:00.838Z,21.50
2018-12-06T00:14:04.647Z,21.50
2018-12-06T00:17:08.339Z,21.50
2018-12-06T00:20:12.002Z,21.50
2018-12-06T00:23:15.752Z,21.50
2018-12-06T00:26:19.405Z,21.50
2018-12-06T00:29:23.137Z,21.50
2018-12-06T00:32:26.806Z,21.50
2018-12-06T00:35:30.534Z,21.50
2018-12-06T00:38:34.190Z,21.50
2018-12-06T00:41:37.982Z,21.50
2018-12-06T00:44:41.633Z,21.50
2018-12-06T00:47:45.410Z,21.40
2018-12-06T00:50:49.068Z,21.40
2018-12-06T00:53:52.818Z,21.40
2018-12-06T00:56:56.475Z,21.40
2018-12-06T01:00:00.214Z,21.40
2018-12-06T01:03:04.038Z,21.40
2018-12-06T01:06:07.823Z,21.40
2018-12-06T01:09:12.503Z,21.40
2018-12-06T01:12:16.266Z,21.40
2018-12-06T01:15:19.934Z,21.40
2018-12-06T01:18:24.120Z,21.30
2018-12-06T01:21:27.782Z,21.30
2018-12-06T01:24:31.571Z,21.30
2018-12-06T01:27:35.274Z,21.30
2018-12-06T01:30:39.028Z,21.30
2018-12-06T01:33:42.716Z,21.30
2018-12-06T01:36:46.467Z,21.30
2018-12-06T01:39:50.142Z,21.30
2018-12-06T01:42:53.922Z,21.30
2018-12-06T01:45:57.637Z,21.30
2018-12-06T01:49:01.410Z,21.30
2018-12-06T01:52:05.106Z,21.20
2018-12-06T01:55:08.882Z,21.20
2018-12-06T01:58:12.551Z,21.20
2018-12-06T02:01:16.258Z,21.20
2018-12-06T02:04:19.910Z,21.20
2018-12-06T02:07:23.562Z,21.20
2018-12-06T02:10:27.222Z,21.20
2018-12-06T02:13:31.019Z,21.20
2018-12-06T02:16:35.194Z,21.20
2018-12-06T02:19:38.850Z,21.20
2018-12-06T02:22:42.522Z,21.10
2018-12-06T02:25:46.178Z,21.10
2018-12-06T02:28:50.209Z,21.10
2018-12-06T02:31:53.893Z,21.10
2018-12-06T02:34:57.542Z,21.10
2018-12-06T02:38:01.216Z,21.10
2018-12-06T02:41:04.918Z,21.00
2018-12-06T02:44:08.825Z,21.10
2018-12-06T02:47:12.723Z,21.00
2018-12-06T02:50:16.630Z,21.00
2018-12-06T02:53:20.690Z,21.00
2018-12-06T02:56:24.559Z,21.00
2018-12-06T02:59:28.478Z,21.00
2018-12-06T03:02:32.380Z,21.00
2018-12-06T03:05:36.297Z,21.00
2018-12-06T03:08:40.227Z,21.00
2018-12-06T03:11:44.198Z,21.00
2018-12-06T03:14:48.137Z,20.90
2018-12-06T03:17:52.046Z,20.90
2018-12-06T03:20:55.963Z,20.90
2018-12-06T03:23:59.870Z,20.90
2018-12-06T03:27:03.778Z,20.90
2018-12-06T03:30:07.797Z,20.90
2018-12-06T03:33:11.712Z,20.90
2018-12-06T03:36:15.624Z,20.90
2018-12-06T03:39:19.537Z,20.90
2018-12-06T03:42:23.750Z,20.90
2018-12-06T03:45:27.662Z,20.80
2018-12-06T03:48:31.593Z,20.80
2018-12-06T03:51:35.587Z,20.80
2018-12-06T03:54:39.504Z,20.80
2018-12-06T03:57:43.429Z,20.80
2018-12-06T04:00:47.326Z,20.80
2018-12-06T04:03:51.254Z,20.80
2018-12-06T04:06:55.142Z,20.80
2018-12-06T04:09:59.066Z,20.80
2018-12-06T04:13:02.969Z,20.80
2018-12-06T04:16:06.885Z,20.80
2018-12-06T04:19:10.796Z,20.70
2018-12-06T04:22:14.705Z,20.70
2018-12-06T04:25:18.621Z,20.70
2018-12-06T04:28:22.547Z,20.70
2018-12-06T04:31:26.445Z,20.70
2018-12-06T04:34:30.358Z,20.70
2018-12-06T04:38:05.498Z,20.70
2018-12-06T04:41:09.418Z,20.70
2018-12-06T04:44:13.326Z,20.70
2018-12-06T04:47:17.247Z,20.60
2018-12-06T04:50:21.144Z,20.60
2018-12-06T04:53:25.062Z,20.70
2018-12-06T04:56:29.080Z,20.60
2018-12-06T04:59:33.003Z,20.60
2018-12-06T05:02:36.848Z,20.60
2018-12-06T05:05:40.825Z,20.60
2018-12-06T05:08:44.718Z,20.60
2018-12-06T05:11:48.646Z,20.60
2018-12-06T05:14:52.551Z,20.60
2018-12-06T05:17:56.462Z,20.60
2018-12-06T05:21:00.374Z,20.60
2018-12-06T05:24:04.277Z,20.60
2018-12-06T05:27:08.190Z,20.60
2018-12-06T05:30:12.112Z,20.70
2018-12-06T05:33:16.034Z,20.70
2018-12-06T05:36:20.034Z,20.80
2018-12-06T05:39:23.946Z,20.90
2018-12-06T05:42:27.856Z,20.90
2018-12-06T05:45:32.026Z,21.00
2018-12-06T05:48:35.981Z,21.10
2018-12-06T05:51:39.909Z,21.20
2018-12-06T05:54:43.814Z,21.30
2018-12-06T05:57:48.295Z,21.40
2018-12-06T06:00:52.355Z,21.40
2018-12-06T06:03:56.258Z,21.50
2018-12-06T06:07:01.976Z,21.60
2018-12-06T06:10:06.233Z,21.70
2018-12-06T06:13:10.150Z,21.70
2018-12-06T06:16:14.059Z,21.80
2018-12-06T06:19:17.966Z,21.80
2018-12-06T06:22:21.890Z,22.00
2018-12-06T06:25:25.807Z,22.00
2018-12-06T06:28:29.706Z,22.00
2018-12-06T06:31:33.613Z,22.10
2018-12-06T06:34:37.546Z,22.10
2018-12-06T06:37:41.440Z,22.10
2018-12-06T06:40:45.351Z,22.10
2018-12-06T06:43:49.265Z,22.10
2018-12-06T06:46:53.760Z,22.20
2018-12-06T06:49:57.701Z,22.20
2018-12-06T06:53:01.631Z,22.20
2018-12-06T06:56:05.530Z,22.30
2018-12-06T06:59:09.442Z,22.30
2018-12-06T07:02:13.354Z,22.30
2018-12-06T07:05:17.278Z,22.30
2018-12-06T07:08:21.190Z,22.40
2018-12-06T07:11:25.082Z,22.40
2018-12-06T07:14:29.229Z,22.40
2018-12-06T07:17:33.125Z,22.40
2018-12-06T07:20:37.030Z,22.40
2018-12-06T07:23:41.042Z,22.50
2018-12-06T07:26:44.999Z,22.50
2018-12-06T07:29:49.070Z,22.40
2018-12-06T07:32:53.002Z,22.50
2018-12-06T07:35:56.899Z,22.50
2018-12-06T07:39:00.885Z,22.60
2018-12-06T07:42:04.931Z,22.60
2018-12-06T07:45:08.938Z,22.60
2018-12-06T07:48:12.862Z,22.60
2018-12-06T07:51:16.758Z,22.60
2018-12-06T07:54:20.670Z,22.70
2018-12-06T07:57:24.590Z,22.80
2018-12-06T08:00:28.511Z,22.90
2018-12-06T08:03:32.411Z,22.90
2018-12-06T08:06:36.321Z,22.80
2018-12-06T08:09:40.230Z,22.60
2018-12-06T08:12:44.138Z,22.50
2018-12-06T08:15:48.070Z,22.40
2018-12-06T08:18:51.967Z,22.30
2018-12-06T08:21:55.898Z,22.10
2018-12-06T08:24:59.909Z,22.10
2018-12-06T08:28:03.882Z,22.00
2018-12-06T08:31:07.829Z,22.00
2018-12-06T08:34:11.730Z,21.90
2018-12-06T08:37:15.643Z,21.90
2018-12-06T08:40:19.559Z,21.80
2018-12-06T08:43:23.491Z,21.80
2018-12-06T08:46:27.396Z,21.80
2018-12-06T08:49:31.305Z,21.80
2018-12-06T08:52:35.238Z,21.80
2018-12-06T08:55:39.158Z,21.80
2018-12-06T08:58:43.051Z,21.80
2018-12-06T09:01:46.756Z,21.90
2018-12-06T09:04:50.435Z,21.90
2018-12-06T09:07:54.126Z,21.90
2018-12-06T09:10:58.218Z,21.90
2018-12-06T09:14:02.198Z,21.90
2018-12-06T09:17:05.910Z,21.90
2018-12-06T09:20:09.884Z,21.90
2018-12-06T09:23:13.536Z,22.00
2018-12-06T09:26:17.203Z,22.00
2018-12-06T09:29:21.010Z,22.10
2018-12-06T09:32:24.818Z,22.10
2018-12-06T09:35:28.474Z,22.10
2018-12-06T09:38:32.213Z,22.10
2018-12-06T09:41:35.966Z,22.10
2018-12-06T09:44:39.614Z,22.10
2018-12-06T09:47:43.867Z,22.10
2018-12-06T09:50:47.597Z,22.20
2018-12-06T09:53:51.862Z,22.20
2018-12-06T09:56:56.586Z,22.20
2018-12-06T10:00:00.486Z,22.20
2018-12-06T10:03:04.383Z,22.20
2018-12-06T10:06:08.048Z,22.20
2018-12-06T10:09:11.773Z,22.30
2018-12-06T10:12:15.494Z,22.30
2018-12-06T10:15:19.190Z,22.30
2018-12-06T10:18:22.913Z,22.30
2018-12-06T10:21:26.855Z,22.30
2018-12-06T10:24:30.853Z,22.30
2018-12-06T10:27:34.550Z,22.30
2018-12-06T10:30:38.199Z,22.30
2018-12-06T10:33:41.930Z,22.30
2018-12-06T10:36:45.591Z,22.30
2018-12-06T10:39:50.610Z,22.30
2018-12-06T10:42:54.614Z,22.30
2018-12-06T10:45:58.278Z,22.30
2018-12-06T10:49:01.967Z,22.30
2018-12-06T10:52:05.658Z,22.30
2018-12-06T10:55:09.336Z,22.30
2018-12-06T10:58:13.166Z,22.20
2018-12-06T11:01:21.411Z,22.20
2018-12-06T11:04:29.370Z,22.30
2018-12-06T11:07:33.022Z,22.20
2018-12-06T11:10:36.881Z,22.20
2018-12-06T11:13:40.534Z,22.20
2018-12-06T11:16:44.227Z,22.30
2018-12-06T11:19:47.882Z,22.30
2018-12-06T11:22:51.601Z,22.40
2018-12-06T11:25:55.291Z,22.40
2018-12-06T11:28:58.985Z,22.50
2018-12-06T11:32:02.645Z,22.50
2018-12-06T11:35:06.370Z,22.60
2018-12-06T11:38:10.026Z,22.60
2018-12-06T11:41:13.719Z,22.60
2018-12-06T11:44:17.375Z,22.70
2018-12-06T11:47:21.062Z,22.70
2018-12-06T11:50:24.710Z,22.60
2018-12-06T11:53:28.494Z,22.60
2018-12-06T11:56:32.146Z,22.60
2018-12-06T11:59:35.838Z,22.60
2018-12-06T12:02:39.505Z,22.60
2018-12-06T12:05:43.197Z,22.60
2018-12-06T12:08:46.842Z,22.60
2018-12-06T12:11:50.542Z,22.60
2018-12-06T12:14:54.222Z,22.70
2018-12-06T12:17:57.965Z,22.70
2018-12-06T12:21:01.624Z,22.70
2018-12-06T12:24:05.550Z,22.70
2018-12-06T12:27:09.239Z,22.70
2018-12-06T12:30:13.051Z,22.70
2018-12-06T12:33:16.696Z,22.70
2018-12-06T12:36:20.457Z,22.70
2018-12-06T12:39:24.110Z,22.70
2018-12-06T12:42:27.804Z,22.70
2018-12-06T12:45:31.450Z,22.70
2018-12-06T12:48:35.170Z,22.70
2018-12-06T12:51:38.817Z,22.60
2018-12-06T12:54:42.574Z,22.60
2018-12-06T12:57:46.320Z,22.60
2018-12-06T13:00:50.020Z,22.60
2018-12-06T13:03:54.110Z,22.50
2018-12-06T13:07:06.346Z,22.50
2018-12-06T13:10:10.035Z,22.50
2018-12-06T13:13:13.805Z,22.40
2018-12-06T13:16:17.471Z,22.40
2018-12-06T13:19:21.310Z,22.40
2018-12-06T13:22:24.998Z,22.30
2018-12-06T13:25:28.808Z,22.30
2018-12-06T13:28:32.457Z,22.20
2018-12-06T13:31:36.264Z,22.20
2018-12-06T13:34:39.970Z,22.20
2018-12-06T13:37:43.738Z,22.20
2018-12-06T13:40:47.427Z,22.20
2018-12-06T13:43:51.192Z,22.20
2018-12-06T13:46:54.836Z,22.20
2018-12-06T13:49:58.606Z,22.30
2018-12-06T13:53:02.295Z,22.30
2018-12-06T13:56:06.014Z,22.30
2018-12-06T13:59:09.669Z,22.40
2018-12-06T14:02:13.333Z,22.40
2018-12-06T14:05:17.015Z,22.40
2018-12-06T14:08:20.668Z,22.50
2018-12-06T14:11:24.317Z,22.50
2018-12-06T14:14:27.990Z,22.50
2018-12-06T14:17:31.646Z,22.50
2018-12-06T14:20:35.438Z,22.60
2018-12-06T14:23:39.102Z,22.60
2018-12-06T14:26:42.750Z,22.60
2018-12-06T14:29:46.394Z,22.60
2018-12-06T14:32:50.052Z,22.60
2018-12-06T14:35:53.702Z,22.60
2018-12-06T14:38:57.369Z,22.70
2018-12-06T14:42:01.011Z,22.70
2018-12-06T14:45:06.078Z,22.70
2018-12-06T14:48:10.495Z,22.70
2018-12-06T14:51:14.430Z,22.70
2018-12-06T14:54:18.335Z,22.70
2018-12-06T14:57:22.251Z,22.80
2018-12-06T15:00:26.172Z,22.80
2018-12-06T15:03:30.074Z,22.80
2018-12-06T15:06:37.524Z,22.80
2018-12-06T15:09:40.153Z,22.80
2018-12-06T15:12:44.066Z,22.80
2018-12-06T15:15:48.066Z,22.80
2018-12-06T15:18:52.020Z,22.80
2018-12-06T15:21:55.906Z,22.80
2018-12-06T15:25:00.171Z,22.80
2018-12-06T15:28:04.204Z,22.80
2018-12-06T15:31:08.254Z,22.80
2018-12-06T15:34:12.162Z,22.80
2018-12-06T15:37:16.074Z,22.90
2018-12-06T15:40:20.089Z,22.80
2018-12-06T15:43:24.004Z,22.90
2018-12-06T15:46:28.071Z,22.90
2018-12-06T15:49:32.059Z,22.90
2018-12-06T15:52:36.163Z,22.90
2018-12-06T15:55:40.090Z,22.90
2018-12-06T15:58:43.981Z,22.90
2018-12-06T16:01:47.886Z,22.90
2018-12-06T16:04:51.811Z,23.00
2018-12-06T16:07:55.709Z,23.00
2018-12-06T16:10:59.766Z,23.00
2018-12-06T16:14:03.838Z,22.90
2018-12-06T16:17:07.864Z,23.00
2018-12-06T16:20:11.723Z,23.00
2018-12-06T16:23:15.689Z,23.00
2018-12-06T16:26:19.590Z,23.00
2018-12-06T16:29:23.569Z,23.00
2018-12-06T16:32:27.511Z,23.00
2018-12-06T16:35:31.429Z,23.00
2018-12-06T16:38:35.310Z,23.00
2018-12-06T16:41:39.530Z,23.00
2018-12-06T16:44:43.693Z,23.00
2018-12-06T16:47:47.591Z,23.00
2018-12-06T16:50:51.642Z,23.00
2018-12-06T16:53:56.958Z,22.90
2018-12-06T16:57:00.964Z,22.90
2018-12-06T17:00:07.543Z,22.90
2018-12-06T17:03:11.483Z,22.90
2018-12-06T17:06:15.358Z,22.90
2018-12-06T17:09:19.275Z,22.90
2018-12-06T17:12:23.178Z,22.90
2018-12-06T17:15:27.094Z,22.90
2018-12-06T17:18:30.999Z,22.90
2018-12-06T17:21:34.918Z,22.90
2018-12-06T17:24:38.830Z,22.90
2018-12-06T17:27:42.753Z,23.00
2018-12-06T17:30:47.031Z,23.10
2018-12-06T17:33:51.562Z,23.30
2018-12-06T17:36:55.508Z,23.40
2018-12-06T17:39:59.415Z,23.50
2018-12-06T17:43:03.339Z,23.70
2018-12-06T17:46:07.313Z,23.80
2018-12-06T17:49:11.871Z,23.90
2018-12-06T17:52:15.792Z,24.00
2018-12-06T17:55:19.694Z,24.10
2018-12-06T17:58:23.576Z,24.00
2018-12-06T18:01:28.449Z,24.10
2018-12-06T18:04:32.463Z,24.10
2018-12-06T18:07:36.371Z,24.10
2018-12-06T18:10:40.727Z,24.20
2018-12-06T18:13:45.047Z,24.10
2018-12-06T18:16:49.711Z,24.10
2018-12-06T18:19:54.074Z,24.10
2018-12-06T18:22:58.230Z,24.10
2018-12-06T18:26:02.276Z,24.10
2018-12-06T18:29:06.332Z,24.10
2018-12-06T18:32:16.336Z,24.10
2018-12-06T18:35:20.798Z,24.10
2018-12-06T18:38:25.057Z,24.10
2018-12-06T18:41:29.019Z,24.10
2018-12-06T18:44:33.519Z,24.20
2018-12-06T18:47:37.467Z,24.20
2018-12-06T18:50:41.514Z,24.20
2018-12-06T18:53:45.870Z,24.20
2018-12-06T18:56:51.051Z,24.20
2018-12-06T18:59:55.272Z,24.20
2018-12-06T19:02:59.527Z,24.20
2018-12-06T19:06:03.679Z,24.20
2018-12-06T19:09:07.854Z,24.20
2018-12-06T19:12:11.821Z,24.20
2018-12-06T19:15:15.782Z,24.20
2018-12-06T19:18:19.762Z,24.20
2018-12-06T19:21:23.694Z,24.20
2018-12-06T19:24:27.957Z,24.20
2018-12-06T19:27:31.957Z,24.20
2018-12-06T19:30:37.263Z,24.20
2018-12-06T19:33:41.406Z,24.10
2018-12-06T19:36:46.391Z,24.00
2018-12-06T19:39:50.370Z,23.90
2018-12-06T19:42:54.830Z,23.80
2018-12-06T19:45:58.798Z,23.70
2018-12-06T19:49:02.768Z,23.70
2018-12-06T19:52:06.994Z,23.60
2018-12-06T19:55:10.906Z,23.60
2018-12-06T19:58:15.150Z,23.50
2018-12-06T20:01:19.102Z,23.60
2018-12-06T20:04:23.120Z,23.60
2018-12-06T20:07:27.054Z,23.50
2018-12-06T20:10:31.114Z,23.50
2018-12-06T20:13:34.979Z,23.50
2018-12-06T20:16:39.270Z,23.50
2018-12-06T20:19:43.230Z,23.50
2018-12-06T20:22:47.158Z,23.50
2018-12-06T20:25:51.056Z,23.50
2018-12-06T20:28:55.082Z,23.50
2018-12-06T20:31:59.057Z,23.50
2018-12-06T20:35:03.005Z,23.50
2018-12-06T20:38:06.895Z,23.50
2018-12-06T20:41:11.513Z,23.50
2018-12-06T20:44:15.170Z,23.40
2018-12-06T20:47:20.217Z,23.40
2018-12-06T20:50:24.254Z,23.40
2018-12-06T20:53:28.277Z,23.40
2018-12-06T20:56:32.526Z,23.40
2018-12-06T20:59:36.578Z,23.40
2018-12-06T21:02:41.441Z,23.50
2018-12-06T21:05:49.000Z,23.50
2018-12-06T21:08:53.476Z,23.60
2018-12-06T21:11:58.241Z,23.60
2018-12-06T21:15:02.228Z,23.70
2018-12-06T21:18:06.267Z,23.80
2018-12-06T21:21:10.258Z,23.90
2018-12-06T21:24:14.150Z,23.90
2018-12-06T21:27:18.074Z,24.10
2018-12-06T21:30:21.970Z,24.10
2018-12-06T21:33:26.106Z,24.20
2018-12-06T21:36:30.106Z,24.20
2018-12-06T21:39:34.010Z,24.30
2018-12-06T21:42:37.950Z,24.40
2018-12-06T21:45:41.951Z,24.50
2018-12-06T21:48:45.854Z,24.60
2018-12-06T21:51:49.883Z,24.60
2018-12-06T21:54:53.878Z,24.90
2018-12-06T21:57:57.798Z,25.20
2018-12-06T22:01:01.719Z,25.20
2018-12-06T22:04:05.722Z,25.00
2018-12-06T22:07:09.642Z,25.00
2018-12-06T22:10:13.666Z,24.70
2018-12-06T22:13:17.562Z,24.40
2018-12-06T22:16:21.471Z,24.10
2018-12-06T22:19:25.389Z,23.80
2018-12-06T22:22:29.299Z,23.50
2018-12-06T22:25:33.414Z,23.30
2018-12-06T22:28:37.434Z,23.10
2018-12-06T22:31:41.438Z,23.00
2018-12-06T22:34:45.347Z,22.80
2018-12-06T22:37:49.282Z,22.80
2018-12-06T22:40:53.659Z,22.70
2018-12-06T22:43:57.707Z,22.70
2018-12-06T22:47:01.611Z,22.60
2018-12-06T22:50:05.834Z,22.60
2018-12-06T22:53:09.742Z,22.60
2018-12-06T22:56:13.679Z,22.60
2018-12-06T22:59:17.707Z,22.50
2018-12-06T23:02:21.799Z,22.50
2018-12-06T23:05:25.726Z,22.50
2018-12-06T23:08:29.633Z,22.50
2018-12-06T23:11:33.743Z,22.50
2018-12-06T23:14:37.638Z,22.40
2018-12-06T23:17:42.854Z,22.40
2018-12-06T23:20:46.807Z,22.30
2018-12-06T23:23:52.691Z,22.30
2018-12-06T23:26:56.665Z,22.30
2018-12-06T23:36:26.433Z,22.10
2018-12-06T23:39:30.538Z,22.10
2018-12-06T23:42:34.510Z,22.10
2018-12-06T23:45:38.465Z,22.00
2018-12-06T23:48:42.382Z,22.10
2018-12-06T23:51:46.290Z,22.10
2018-12-06T23:54:50.198Z,22.10
2018-12-06T23:57:54.139Z,22.20
